Terminal Aerodrome Forecast
Issued by NWS

Home | Current Version | Previous Version | Text Only | Print | Product List | Glossary On
Versions: 1 2 3 4 5 6 7 8 9 10 11 12 13 14 15 16 17 18 19 20 21 22 23 24 25 26 27 28 29 30 31 32 33 34 35 36 37 38 39 40
911
FTUS43 KMKX 042154 AAA
TAFUES
TAF AMD
KUES 042154Z 0422/0518 14007KT 3/4SM -SN OVC008
     FM050100 24006KT P6SM OVC010
     FM050900 25006KT P6SM BKN040
     FM051400 23004KT P6SM BKN110=

USA.gov is the U.S. government's official web portal to all federal, state and local government web resources and services.